Aviation Digital Data Service (ADDS)

Output produced by METARs form (0640 UTC 27 March 2017)
found at http://www.aviationweather.gov/adds/metars/
 
EIME 270600Z 33003KT 240/100 9999 FEW024 06/05 Q1021
TAF EIME 270500Z 2706/2715 07005KT CAVOK 
     BECMG 2707/2709 10007KT
       
EIKN 270630Z 11009KT CAVOK 05/04 Q1020 NOSIG
TAF EIKN 270500Z 2706/2806 11010KT CAVOK
       
EICK 270630Z 09008KT 6000 SCT005 07/06 Q1018 TEMPO 5000 BKN005
TAF EICK 270500Z 2706/2806 08007KT CAVOK 
     PROB30 
     TEMPO 2706/2708 3000 BR BLN005
       
EIDL 270630Z 10010KT CAVOK 08/03 Q1021
TAF EIDL 270500Z 2706/2715 VRB03KT CAVOK 
     BECMG 2707/2709 10007KT
       
EIDW 270630Z 03005KT CAVOK 04/04 Q1022 NOSIG
TAF EIDW 270500Z 2706/2806 04006KT CAVOK 
     BECMG 2707/2709 10008KT
       
EIKY 270630Z 10012KT CAVOK 07/05 Q1018
TAF EIKY 270500Z 2706/2715 09007KT CAVOK
       
EINN 270630Z 11009KT CAVOK 08/05 Q1020 NOSIG
TAF EINN 270500Z 2706/2806 10007KT CAVOK
       
TAF EISG 270500Z 2706/2715 VRB03KT CAVOK 
     BECMG 2707/2709 10007KT
       
EIWF 270630Z 07004KT CAVOK 05/04 Q1020
TAF EIWF 270500Z 2706/2715 11010KT CAVOK